Austonio, Texas
Current Conditions -  °F | °C
As of 12:55 AM on Friday 19 Dec 2014 (Local Time) from KDKR Reporting Station
Overcast Overcast  
Wind Chill: 54°   Ceiling: 400
Heat Index: 54°   Visibility: NA
Dew Point: 54°   Wind: 9mph
Humidity: 100%   Direction: 40°NE
Pressure: 30.11"   Gusts: NA
Location:  31.2828°N, 95.4821°W
Report Text: KDKR 190655Z AUTO 04008KT OVC004 12/12 A3011 RMK AO2 LTG DSNT S AND SW
Loading
Personal Weather Stations






























Interactive Weather Map New forecast layout! Learn more

10-Day Weather Forecast

Advertisements
Track Severe Weather on mobile